Time;durP1;ratioP1;P1;durP2;ratioP2;P2;SDS_P1;SDS_P2;PMS_P1;PMS_P2;Temp;Humidity;BMP_temperature;BMP_pressure;BME280_temperature;BME280_humidity;BME280_pressure;Samples;Min_cycle;Max_cycle;Signal;HPM_P1;HPM_P2
2023/08/15 00:00:02;;;;;;;2.20;1.35;;;25.80;97.70;;;;;;1932784;74;21533;-89
2023/08/15 00:02:55;;;;;;;2.27;1.50;;;25.70;97.90;;;;;;1932916;74;21156;-89
2023/08/15 00:05:47;;;;;;;2.52;1.70;;;25.60;98.50;;;;;;1932696;74;21514;-89
2023/08/15 00:08:38;;;;;;;4.03;1.75;;;25.40;99.10;;;;;;1933313;74;21091;-89
2023/08/15 00:11:31;;;;;;;2.52;1.55;;;25.20;99.70;;;;;;1932740;74;21058;-88
2023/08/15 00:14:23;;;;;;;3.65;1.75;;;25.20;99.90;;;;;;1932945;74;21164;-89
2023/08/15 00:17:14;;;;;;;3.22;1.75;;;25.10;99.90;;;;;;1932794;74;21208;-89
2023/08/15 00:20:09;;;;;;;3.00;1.70;;;25.00;99.90;;;;;;1932728;74;21122;-89
2023/08/15 00:23:02;;;;;;;4.83;1.70;;;24.90;99.90;;;;;;1932945;74;21122;-88
2023/08/15 00:25:53;;;;;;;4.20;1.70;;;24.90;99.90;;;;;;1932852;74;21083;-89
2023/08/15 00:28:45;;;;;;;3.70;1.90;;;24.80;99.90;;;;;;1932925;74;21155;-89
2023/08/15 00:31:37;;;;;;;2.90;1.77;;;24.90;99.90;;;;;;1932740;74;21155;-89
2023/08/15 00:34:29;;;;;;;4.92;1.82;;;24.90;99.90;;;;;;1933198;74;21075;-89
2023/08/15 00:37:21;;;;;;;2.08;1.60;;;24.80;99.90;;;;;;1932797;74;21101;-89
2023/08/15 00:40:13;;;;;;;2.25;1.47;;;24.80;99.90;;;;;;1932663;74;21184;-88
2023/08/15 00:43:05;;;;;;;2.95;1.70;;;24.70;99.90;;;;;;1932739;74;21094;-88
2023/08/15 00:45:56;;;;;;;2.00;1.40;;;24.60;99.90;;;;;;1932674;74;21156;-89
2023/08/15 00:48:48;;;;;;;3.60;1.70;;;24.60;99.90;;;;;;1932599;74;21058;-89
2023/08/15 00:51:41;;;;;;;3.58;1.47;;;24.50;99.90;;;;;;1932648;74;21090;-89
2023/08/15 00:54:33;;;;;;;2.30;1.42;;;24.50;99.90;;;;;;1932437;74;21059;-89
2023/08/15 00:57:25;;;;;;;6.00;1.40;;;24.50;99.90;;;;;;1932733;74;21164;-89
2023/08/15 01:00:18;;;;;;;3.62;1.42;;;24.50;99.90;;;;;;1933361;74;21164;-88
2023/08/15 01:03:09;;;;;;;3.65;1.47;;;24.50;99.90;;;;;;1933125;74;21132;-88
2023/08/15 01:06:01;;;;;;;4.65;1.40;;;24.50;99.90;;;;;;1932693;74;21545;-88
2023/08/15 01:08:53;;;;;;;3.98;1.50;;;24.40;99.90;;;;;;1932784;74;21149;-88
2023/08/15 01:11:49;;;;;;;4.42;1.40;;;24.50;99.90;;;;;;1932753;74;21169;-89
2023/08/15 01:14:43;;;;;;;1.72;1.22;;;24.50;99.90;;;;;;1932918;74;21161;-88
2023/08/15 01:20:21;;;;;;;2.85;1.72;;;24.50;99.90;;;;;;1975789;72;22220;-88
2023/08/15 01:23:15;;;;;;;2.75;1.30;;;24.50;99.90;;;;;;1950844;73;21183;-89
2023/08/15 01:26:06;;;;;;;7.60;1.70;;;24.50;99.90;;;;;;1951061;73;21102;-87
2023/08/15 01:28:58;;;;;;;2.22;1.50;;;24.50;99.90;;;;;;1950364;73;21130;-87
2023/08/15 01:31:53;;;;;;;4.90;1.60;;;24.50;99.90;;;;;;1950657;73;21083;-87
2023/08/15 01:34:48;;;;;;;2.22;1.30;;;24.50;99.90;;;;;;1941045;73;21086;-88
2023/08/15 01:37:41;;;;;;;2.42;1.40;;;24.40;99.90;;;;;;1919420;75;21128;-88
2023/08/15 01:40:36;;;;;;;2.47;1.77;;;24.40;99.90;;;;;;1917544;75;21091;-88
2023/08/15 01:43:29;;;;;;;3.52;1.45;;;24.20;99.90;;;;;;1917530;75;21168;-89
2023/08/15 01:46:20;;;;;;;2.33;1.50;;;24.20;99.90;;;;;;1917604;75;21102;-88
2023/08/15 01:49:12;;;;;;;3.10;1.62;;;24.20;99.90;;;;;;1917381;75;21471;-89
2023/08/15 01:52:03;;;;;;;4.42;1.55;;;24.20;99.90;;;;;;1918306;75;21128;-88
2023/08/15 01:54:55;;;;;;;2.52;1.50;;;24.20;99.90;;;;;;1917360;75;21074;-89
2023/08/15 01:57:46;;;;;;;4.25;1.60;;;24.20;99.90;;;;;;1917292;75;21546;-88
2023/08/15 02:00:38;;;;;;;2.98;1.42;;;24.20;99.90;;;;;;1917393;75;21176;-89
2023/08/15 02:03:29;;;;;;;4.33;1.50;;;24.30;99.90;;;;;;1917325;75;21076;-88
2023/08/15 02:06:20;;;;;;;2.77;1.47;;;24.30;99.90;;;;;;1917362;75;21070;-89
2023/08/15 02:09:11;;;;;;;2.47;1.57;;;24.30;99.90;;;;;;1917432;75;21082;-88
2023/08/15 02:12:03;;;;;;;2.72;1.52;;;24.30;99.90;;;;;;1917112;75;21160;-89
2023/08/15 02:14:55;;;;;;;4.70;1.65;;;24.30;99.90;;;;;;1916782;75;21216;-88
2023/08/15 02:17:47;;;;;;;3.80;2.27;;;24.20;99.90;;;;;;1917643;75;21157;-89
2023/08/15 02:20:38;;;;;;;2.90;1.50;;;24.20;99.90;;;;;;1916909;74;21187;-89
2023/08/15 02:23:30;;;;;;;4.85;1.80;;;24.10;99.90;;;;;;1917291;75;21092;-89
2023/08/15 02:26:21;;;;;;;3.55;1.77;;;24.10;99.90;;;;;;1917210;75;21212;-88
2023/08/15 02:29:15;;;;;;;3.45;1.72;;;24.10;99.90;;;;;;1905187;75;21080;-89
2023/08/15 02:32:08;;;;;;;3.62;2.00;;;24.10;99.90;;;;;;1904387;75;21103;-89
2023/08/15 02:34:59;;;;;;;3.85;1.87;;;24.00;99.90;;;;;;1916678;75;21115;-90
2023/08/15 02:37:52;;;;;;;3.17;1.80;;;24.00;99.90;;;;;;1904118;75;21098;-89
2023/08/15 02:40:44;;;;;;;4.87;1.90;;;24.00;99.90;;;;;;1916385;75;21121;-89
2023/08/15 02:43:35;;;;;;;3.92;2.08;;;24.00;99.90;;;;;;1917619;75;21087;-89
2023/08/15 02:46:28;;;;;;;3.55;2.00;;;23.90;99.90;;;;;;1916843;75;21098;-89
2023/08/15 02:49:20;;;;;;;4.37;1.95;;;23.90;99.90;;;;;;1916545;75;21168;-89
2023/08/15 02:52:12;;;;;;;3.77;2.00;;;23.90;99.90;;;;;;1917148;75;21172;-89
2023/08/15 02:55:04;;;;;;;5.15;1.60;;;23.90;99.90;;;;;;1904430;75;21122;-89
2023/08/15 02:57:55;;;;;;;2.22;1.57;;;23.80;99.90;;;;;;1904334;75;21119;-89
2023/08/15 03:00:47;;;;;;;2.50;1.70;;;23.80;99.90;;;;;;1904468;75;21257;-89
2023/08/15 03:03:39;;;;;;;4.17;1.85;;;23.80;99.90;;;;;;1904421;75;21133;-89
2023/08/15 03:06:30;;;;;;;2.65;1.70;;;23.80;99.90;;;;;;1904268;75;21087;-88
2023/08/15 03:09:22;;;;;;;3.05;1.85;;;23.80;99.90;;;;;;1917190;75;21102;-89
2023/08/15 03:12:13;;;;;;;2.77;1.98;;;23.50;99.90;;;;;;1916458;75;21209;-89
2023/08/15 03:15:06;;;;;;;3.20;1.80;;;23.20;99.90;;;;;;1916477;75;21051;-88
2023/08/15 03:17:58;;;;;;;3.33;2.08;;;23.20;99.90;;;;;;1904187;75;21193;-89
2023/08/15 03:20:57;;;;;;;3.65;2.00;;;23.20;99.90;;;;;;1923353;74;21079;-88
2023/08/15 03:23:51;;;;;;;4.37;2.12;;;23.10;99.90;;;;;;1932687;74;21097;-89
2023/08/15 03:26:43;;;;;;;3.37;1.90;;;23.10;99.90;;;;;;1932771;74;21078;-89
2023/08/15 03:29:35;;;;;;;3.62;2.15;;;23.10;99.90;;;;;;1934164;74;21087;-89
2023/08/15 03:32:26;;;;;;;5.50;2.05;;;23.10;99.90;;;;;;1933360;74;21081;-89
2023/08/15 03:35:20;;;;;;;3.33;2.37;;;23.10;99.90;;;;;;1933502;74;21082;-89
2023/08/15 03:38:15;;;;;;;3.70;1.92;;;22.90;99.90;;;;;;1932836;74;21134;-88
2023/08/15 03:41:07;;;;;;;4.12;1.95;;;22.80;99.90;;;;;;1932725;74;21097;-88
2023/08/15 03:43:59;;;;;;;9.10;4.62;;;22.80;99.90;;;;;;1932797;74;21051;-88
2023/08/15 03:46:50;;;;;;;13.30;5.53;;;22.90;99.90;;;;;;1933143;74;21145;-88
2023/08/15 03:49:42;;;;;;;7.17;3.30;;;22.90;99.90;;;;;;1932592;74;21105;-89
2023/08/15 03:52:35;;;;;;;5.80;2.58;;;22.90;99.90;;;;;;1932806;74;21046;-88
2023/08/15 03:55:27;;;;;;;6.30;2.90;;;22.90;99.90;;;;;;1932460;74;21121;-88
2023/08/15 03:58:18;;;;;;;5.37;2.42;;;22.90;99.90;;;;;;1932581;74;21175;-89
2023/08/15 04:01:09;;;;;;;3.92;2.40;;;22.90;99.90;;;;;;1933146;74;21058;-88
2023/08/15 04:04:01;;;;;;;4.78;2.12;;;22.90;99.90;;;;;;1932409;74;21995;-89
2023/08/15 04:06:54;;;;;;;3.98;2.10;;;23.00;99.90;;;;;;1932647;74;21080;-89
2023/08/15 04:09:45;;;;;;;4.75;2.62;;;23.00;99.90;;;;;;1932787;74;21109;-89
2023/08/15 04:12:37;;;;;;;4.78;2.50;;;23.00;99.90;;;;;;1932773;74;21109;-89
2023/08/15 04:15:28;;;;;;;3.52;2.45;;;22.90;99.90;;;;;;1932682;74;21126;-88
2023/08/15 04:18:20;;;;;;;8.18;2.60;;;22.90;99.90;;;;;;1932857;74;21047;-88
2023/08/15 04:21:13;;;;;;;6.15;2.50;;;22.90;99.90;;;;;;1932564;74;21175;-88
2023/08/15 04:24:04;;;;;;;3.58;2.10;;;22.80;99.90;;;;;;1932607;74;21219;-88
2023/08/15 04:26:56;;;;;;;3.40;1.87;;;22.80;99.90;;;;;;1933364;74;21507;-89
2023/08/15 04:29:47;;;;;;;3.83;2.27;;;22.90;99.90;;;;;;1932618;74;21097;-88
2023/08/15 04:32:39;;;;;;;4.08;1.95;;;23.00;99.90;;;;;;1932749;74;21196;-89
2023/08/15 04:35:31;;;;;;;4.67;2.12;;;23.10;99.90;;;;;;1932432;74;21164;-89
2023/08/15 04:38:23;;;;;;;5.58;2.30;;;23.10;99.90;;;;;;1932492;74;21075;-88
2023/08/15 04:41:16;;;;;;;4.17;1.90;;;23.10;99.90;;;;;;1932602;74;21115;-88
2023/08/15 04:44:10;;;;;;;7.37;2.20;;;23.20;99.90;;;;;;1932781;74;21175;-89
2023/08/15 04:47:02;;;;;;;3.77;2.17;;;23.20;99.90;;;;;;1932767;74;21511;-89
2023/08/15 04:49:55;;;;;;;4.58;2.40;;;23.10;99.90;;;;;;1932999;74;21120;-88
2023/08/15 04:52:46;;;;;;;3.35;2.37;;;23.10;99.90;;;;;;1933552;74;21082;-89
2023/08/15 04:55:38;;;;;;;3.47;2.00;;;23.10;99.90;;;;;;1933020;74;21077;-88
2023/08/15 04:58:29;;;;;;;3.25;2.02;;;23.10;99.90;;;;;;1932779;74;21047;-88
2023/08/15 05:01:21;;;;;;;2.58;2.00;;;23.00;99.90;;;;;;1932736;74;21075;-88
2023/08/15 05:04:12;;;;;;;4.35;2.05;;;23.00;99.90;;;;;;1932614;74;21089;-88
2023/08/15 05:07:04;;;;;;;4.33;1.82;;;23.00;99.90;;;;;;1932779;74;21050;-88
2023/08/15 05:09:55;;;;;;;4.75;1.72;;;23.00;99.90;;;;;;1932912;74;21167;-89
2023/08/15 05:12:47;;;;;;;2.65;1.80;;;23.10;99.90;;;;;;1932667;74;21094;-88
2023/08/15 05:15:39;;;;;;;4.50;1.85;;;23.10;99.90;;;;;;1932695;74;21111;-88
2023/08/15 05:18:36;;;;;;;5.67;1.98;;;23.10;99.90;;;;;;1933731;74;21038;-88
2023/08/15 05:21:28;;;;;;;3.98;1.75;;;23.00;99.90;;;;;;1934040;74;21063;-88
2023/08/15 05:24:20;;;;;;;4.08;1.95;;;23.00;99.90;;;;;;1933995;74;21062;-89
2023/08/15 05:27:13;;;;;;;2.80;1.82;;;23.00;99.90;;;;;;1932712;74;21089;-89
2023/08/15 05:30:06;;;;;;;2.22;1.90;;;23.00;99.90;;;;;;1932928;74;21055;-89
2023/08/15 05:32:57;;;;;;;6.90;1.82;;;23.10;99.90;;;;;;1932913;74;21174;-88
2023/08/15 05:35:49;;;;;;;4.45;1.90;;;23.10;99.90;;;;;;1932583;74;21055;-88
2023/08/15 05:38:41;;;;;;;4.67;2.67;;;23.00;99.90;;;;;;1932594;74;21514;-88
2023/08/15 05:41:33;;;;;;;7.15;3.08;;;22.90;99.90;;;;;;1932545;74;21175;-89
2023/08/15 05:44:24;;;;;;;3.72;2.12;;;22.80;99.90;;;;;;1933649;74;21126;-88
2023/08/15 05:47:16;;;;;;;3.72;2.10;;;22.70;99.90;;;;;;1932472;74;21051;-89
2023/08/15 05:50:09;;;;;;;5.53;2.42;;;22.60;99.90;;;;;;1932452;74;21235;-90
2023/08/15 05:53:00;;;;;;;3.20;2.37;;;22.40;99.90;;;;;;1932284;74;21159;-89
2023/08/15 05:55:52;;;;;;;3.98;2.00;;;22.30;99.90;;;;;;1932640;74;21122;-89
2023/08/15 05:58:44;;;;;;;4.12;2.10;;;22.30;99.90;;;;;;1932529;74;21097;-89
2023/08/15 06:01:35;;;;;;;5.17;2.33;;;22.30;99.90;;;;;;1932750;74;21153;-88
2023/08/15 06:04:27;;;;;;;6.33;2.52;;;22.30;99.90;;;;;;1932503;74;21119;-89
2023/08/15 06:07:18;;;;;;;3.52;1.87;;;22.40;99.90;;;;;;1932431;74;21086;-88
2023/08/15 06:10:11;;;;;;;5.28;2.30;;;22.50;99.90;;;;;;1933675;74;21199;-88
2023/08/15 06:13:02;;;;;;;4.40;2.10;;;22.50;99.90;;;;;;1932896;74;21168;-88
2023/08/15 06:15:54;;;;;;;4.12;2.30;;;22.70;99.90;;;;;;1932868;74;21291;-88
2023/08/15 06:18:45;;;;;;;5.75;2.08;;;22.80;99.90;;;;;;1932662;74;21066;-89
2023/08/15 06:21:37;;;;;;;4.70;2.25;;;23.00;99.90;;;;;;1932787;74;21074;-89
2023/08/15 06:24:29;;;;;;;4.83;2.72;;;23.10;99.90;;;;;;1932871;74;21219;-89
2023/08/15 06:27:20;;;;;;;6.45;2.95;;;23.10;99.90;;;;;;1932801;74;21200;-89
2023/08/15 06:30:13;;;;;;;3.77;2.60;;;23.20;99.90;;;;;;1932776;74;21090;-88
2023/08/15 06:33:05;;;;;;;6.17;2.85;;;23.30;99.90;;;;;;1932837;74;21102;-88
2023/08/15 06:35:56;;;;;;;4.30;2.70;;;23.40;99.90;;;;;;1916702;74;21089;-89
2023/08/15 06:38:49;;;;;;;5.10;2.98;;;23.40;99.90;;;;;;1911592;75;21097;-89
2023/08/15 06:41:40;;;;;;;3.12;2.83;;;23.50;99.90;;;;;;1911524;75;21041;-88
2023/08/15 06:44:32;;;;;;;5.08;2.50;;;23.60;99.90;;;;;;1912597;75;21163;-89
2023/08/15 06:47:23;;;;;;;4.97;2.75;;;23.80;99.90;;;;;;1911234;75;21175;-88
2023/08/15 06:50:15;;;;;;;3.17;2.67;;;24.00;99.90;;;;;;1911321;75;21154;-88
2023/08/15 06:53:09;;;;;;;4.05;2.50;;;24.20;99.90;;;;;;1911476;75;21194;-89
2023/08/15 06:56:00;;;;;;;4.95;2.42;;;24.20;99.90;;;;;;1911559;75;21514;-88
2023/08/15 06:58:55;;;;;;;3.37;2.30;;;24.30;99.90;;;;;;1910942;75;21057;-88
2023/08/15 07:01:46;;;;;;;3.95;2.60;;;24.40;99.90;;;;;;1911744;75;21199;-88
2023/08/15 07:04:40;;;;;;;4.85;2.62;;;24.40;99.90;;;;;;1910542;75;21120;-89
2023/08/15 07:07:31;;;;;;;3.80;2.70;;;24.50;99.90;;;;;;1910867;75;21167;-88
2023/08/15 07:10:24;;;;;;;6.42;2.70;;;24.70;99.90;;;;;;1911329;75;21096;-88
2023/08/15 07:13:15;;;;;;;3.83;2.70;;;24.90;99.90;;;;;;1911525;75;21117;-88
2023/08/15 07:16:06;;;;;;;3.62;2.20;;;24.80;99.90;;;;;;1913585;75;21096;-89
2023/08/15 07:19:05;;;;;;;3.87;2.50;;;24.90;99.90;;;;;;1911467;75;21169;-89
2023/08/15 07:22:09;;;;;;;5.05;2.45;;;25.00;99.90;;;;;;1911366;75;21137;-88
2023/08/15 07:25:01;;;;;;;3.47;2.35;;;25.20;99.90;;;;;;1911431;73;21120;-89
2023/08/15 07:27:52;;;;;;;4.37;2.42;;;25.50;99.90;;;;;;1911993;75;21096;-89
2023/08/15 07:30:45;;;;;;;3.60;2.42;;;25.50;99.90;;;;;;1911283;75;21167;-89
2023/08/15 07:33:37;;;;;;;3.60;2.02;;;25.30;99.90;;;;;;1911512;75;21137;-90
2023/08/15 07:36:29;;;;;;;5.20;2.30;;;25.40;99.90;;;;;;1890184;76;21140;-89
2023/08/15 07:39:21;;;;;;;4.65;2.37;;;25.60;99.90;;;;;;1890262;76;21094;-89
2023/08/15 07:42:13;;;;;;;3.27;2.30;;;25.90;99.90;;;;;;1890441;76;21604;-89
2023/08/15 07:45:07;;;;;;;5.05;1.80;;;26.00;99.90;;;;;;1890242;76;21172;-89
2023/08/15 07:47:58;;;;;;;4.80;2.40;;;26.10;99.90;;;;;;1890334;76;21101;-89
2023/08/15 07:50:50;;;;;;;4.85;2.45;;;26.10;99.90;;;;;;1890304;76;21092;-89
2023/08/15 07:53:41;;;;;;;6.15;3.60;;;26.10;99.90;;;;;;1890971;76;21097;-89
2023/08/15 07:56:33;;;;;;;4.97;2.80;;;26.30;99.90;;;;;;1890517;76;21175;-89
2023/08/15 07:59:25;;;;;;;7.03;2.87;;;26.40;99.90;;;;;;1890426;76;21089;-89
2023/08/15 08:02:17;;;;;;;5.15;2.83;;;26.50;99.90;;;;;;1890252;76;21109;-89
2023/08/15 08:05:09;;;;;;;4.67;2.30;;;26.70;99.90;;;;;;1890212;76;21093;-89
2023/08/15 08:08:01;;;;;;;4.00;2.87;;;26.70;99.90;;;;;;1890448;76;21599;-89
2023/08/15 08:10:53;;;;;;;7.40;2.90;;;26.90;99.90;;;;;;1890189;76;21882;-90
2023/08/15 08:13:45;;;;;;;4.55;2.70;;;26.90;99.90;;;;;;1890293;76;21082;-89
2023/08/15 08:16:36;;;;;;;2.80;2.47;;;26.90;99.90;;;;;;1890627;76;21089;-89
2023/08/15 08:19:30;;;;;;;4.45;2.62;;;26.90;99.90;;;;;;1891128;76;21172;-89
2023/08/15 08:22:22;;;;;;;4.17;2.52;;;26.90;99.90;;;;;;1890509;76;21152;-90
2023/08/15 08:25:16;;;;;;;4.05;2.55;;;27.00;99.90;;;;;;1895117;74;21191;-89
2023/08/15 08:28:08;;;;;;;4.33;2.72;;;27.10;99.90;;;;;;1911394;75;21130;-89
2023/08/15 08:31:02;;;;;;;3.80;2.55;;;27.20;99.90;;;;;;1911177;75;21095;-89
2023/08/15 08:33:53;;;;;;;3.52;2.60;;;27.30;99.90;;;;;;1911223;75;21110;-90
2023/08/15 08:36:45;;;;;;;5.12;2.47;;;27.40;99.90;;;;;;1911282;75;21102;-90
2023/08/15 08:39:37;;;;;;;4.72;2.60;;;27.40;99.90;;;;;;1912192;75;21086;-89
2023/08/15 08:42:28;;;;;;;4.17;2.60;;;27.40;99.90;;;;;;1911857;75;21160;-90
2023/08/15 08:45:22;;;;;;;5.65;2.70;;;27.40;99.90;;;;;;1911960;75;21080;-90
2023/08/15 08:48:15;;;;;;;3.35;2.35;;;27.40;99.90;;;;;;1911497;75;21146;-90
2023/08/15 08:51:09;;;;;;;3.52;2.42;;;27.40;99.90;;;;;;1911329;75;21530;-90
2023/08/15 08:54:00;;;;;;;3.02;2.58;;;27.50;99.90;;;;;;1911749;75;21106;-90
2023/08/15 08:56:54;;;;;;;4.62;2.72;;;27.60;99.90;;;;;;1911428;75;21233;-90
2023/08/15 08:59:46;;;;;;;4.08;2.55;;;27.70;99.90;;;;;;1911237;75;21219;-89
2023/08/15 09:02:38;;;;;;;5.50;2.37;;;27.70;99.90;;;;;;1911123;75;21189;-90
2023/08/15 09:05:30;;;;;;;3.50;2.20;;;27.80;99.90;;;;;;1911072;75;21197;-90
2023/08/15 09:08:22;;;;;;;3.60;2.58;;;27.70;99.90;;;;;;1914561;75;21051;-90
2023/08/15 09:11:13;;;;;;;4.37;2.40;;;27.60;99.90;;;;;;1911804;75;21102;-90
2023/08/15 09:14:06;;;;;;;4.40;2.62;;;27.60;99.90;;;;;;1912019;75;21498;-89
2023/08/15 09:16:57;;;;;;;6.12;3.05;;;27.70;99.90;;;;;;1911085;75;21109;-91
2023/08/15 09:19:49;;;;;;;5.12;2.70;;;27.80;99.90;;;;;;1911334;75;21094;-90
2023/08/15 09:22:44;;;;;;;3.50;2.92;;;27.80;99.90;;;;;;1911459;75;21674;-90
2023/08/15 09:25:37;;;;;;;4.17;2.75;;;27.70;99.90;;;;;;1910799;75;21125;-90
2023/08/15 09:28:30;;;;;;;5.28;2.55;;;27.80;99.90;;;;;;1922779;74;21108;-90
2023/08/15 09:31:21;;;;;;;3.27;2.42;;;28.00;99.90;;;;;;1922919;74;21179;-90
2023/08/15 09:34:13;;;;;;;3.75;2.80;;;28.10;99.90;;;;;;1923136;74;21109;-90
2023/08/15 09:37:04;;;;;;;3.85;2.70;;;28.20;99.90;;;;;;1923315;74;21119;-90
2023/08/15 09:39:56;;;;;;;4.85;2.72;;;28.30;99.90;;;;;;1923095;74;21063;-90
2023/08/15 09:42:48;;;;;;;6.17;2.62;;;28.30;99.90;;;;;;1923303;74;21101;-90
2023/08/15 09:45:40;;;;;;;6.35;2.90;;;28.30;99.90;;;;;;1923343;74;21168;-89
2023/08/15 09:48:33;;;;;;;6.28;2.62;;;28.40;99.90;;;;;;1923114;74;21168;-90
2023/08/15 09:51:27;;;;;;;3.35;2.60;;;28.30;99.90;;;;;;1922970;74;21635;-90
2023/08/15 09:54:19;;;;;;;6.03;2.90;;;28.40;99.90;;;;;;1922978;74;21160;-89
2023/08/15 09:57:11;;;;;;;5.70;2.58;;;28.40;99.90;;;;;;1922892;74;21053;-89
2023/08/15 10:00:04;;;;;;;2.20;2.00;;;28.30;99.90;;;;;;1923224;74;21106;-88
2023/08/15 10:02:59;;;;;;;3.77;2.40;;;28.20;99.90;;;;;;1923812;74;21174;-88
2023/08/15 10:05:55;;;;;;;3.55;1.95;;;28.00;99.90;;;;;;1923474;74;21172;-89
2023/08/15 10:08:47;;;;;;;2.98;1.60;;;28.10;99.90;;;;;;1923043;74;21140;-88
2023/08/15 10:11:42;;;;;;;2.67;1.75;;;28.20;99.90;;;;;;1923103;74;21106;-89
2023/08/15 10:14:34;;;;;;;2.60;1.70;;;28.00;99.90;;;;;;1923102;74;21171;-88
2023/08/15 10:17:28;;;;;;;2.55;1.70;;;28.00;99.90;;;;;;1923225;74;21567;-88
2023/08/15 10:20:21;;;;;;;3.05;2.00;;;28.00;99.90;;;;;;1923253;74;21105;-87
2023/08/15 10:23:12;;;;;;;1.90;1.60;;;28.20;99.90;;;;;;1923023;74;21109;-86
2023/08/15 10:26:04;;;;;;;2.10;1.90;;;28.20;99.90;;;;;;1922772;74;21093;-87
2023/08/15 10:28:57;;;;;;;3.50;1.60;;;28.30;99.90;;;;;;1912384;74;21604;-88
2023/08/15 10:31:50;;;;;;;3.58;1.87;;;28.30;99.90;;;;;;1911654;75;21122;-87
2023/08/15 10:34:42;;;;;;;1.92;1.70;;;28.50;99.90;;;;;;1911666;75;21122;-88
2023/08/15 10:37:37;;;;;;;2.95;1.52;;;28.60;99.90;;;;;;1912324;75;21149;-88
2023/08/15 10:40:39;;;;;;;1.92;1.65;;;28.70;99.90;;;;;;1911224;75;21122;-88
2023/08/15 10:43:32;;;;;;;3.80;1.67;;;28.80;99.90;;;;;;1911308;75;21147;-88
2023/08/15 10:46:28;;;;;;;3.08;1.57;;;28.90;99.90;;;;;;1911304;75;21109;-88
2023/08/15 10:49:22;;;;;;;3.35;1.65;;;29.00;99.90;;;;;;1911329;75;21565;-89
2023/08/15 10:52:13;;;;;;;2.08;1.82;;;29.20;99.90;;;;;;1911416;75;21086;-89
2023/08/15 10:55:04;;;;;;;3.22;1.60;;;29.40;99.90;;;;;;1911864;75;21069;-88
2023/08/15 10:57:57;;;;;;;2.83;1.75;;;29.50;99.90;;;;;;1911479;75;21169;-89
2023/08/15 11:00:49;;;;;;;3.10;1.75;;;29.70;99.90;;;;;;1914033;75;21188;-88
2023/08/15 11:03:41;;;;;;;1.95;1.65;;;29.90;99.60;;;;;;1912138;75;21180;-89
2023/08/15 11:06:34;;;;;;;1.82;1.60;;;30.20;99.70;;;;;;1911674;75;21110;-89
2023/08/15 11:09:30;;;;;;;4.22;1.80;;;30.50;99.00;;;;;;1911363;75;21118;-89
2023/08/15 11:12:24;;;;;;;3.87;1.50;;;30.60;97.70;;;;;;1911379;75;21169;-89
2023/08/15 11:15:16;;;;;;;2.20;1.40;;;30.50;97.20;;;;;;1911303;75;21128;-89
2023/08/15 11:18:07;;;;;;;2.40;1.50;;;30.50;97.10;;;;;;1911391;75;21176;-89
2023/08/15 11:20:59;;;;;;;4.25;1.60;;;30.50;97.10;;;;;;1911766;75;21095;-89
2023/08/15 11:23:54;;;;;;;4.83;1.60;;;30.60;97.20;;;;;;1911306;75;21132;-89
2023/08/15 11:26:44;;;;;;;2.47;1.80;;;30.40;96.90;;;;;;1911233;75;21101;-88
2023/08/15 11:29:35;;;;;;;1.90;1.40;;;30.40;97.10;;;;;;1911378;74;21094;-88
2023/08/15 11:32:27;;;;;;;2.52;1.80;;;30.30;96.30;;;;;;1911310;75;21086;-89
2023/08/15 11:35:19;;;;;;;3.55;1.50;;;30.30;96.50;;;;;;1911242;75;21134;-89
2023/08/15 11:38:13;;;;;;;2.47;1.70;;;30.30;96.50;;;;;;1911199;75;21137;-89
2023/08/15 11:41:05;;;;;;;2.67;1.70;;;30.40;96.10;;;;;;1911352;75;21102;-89
2023/08/15 11:43:58;;;;;;;2.95;1.80;;;30.50;96.00;;;;;;1911316;75;21059;-89
2023/08/15 11:46:49;;;;;;;2.37;1.30;;;30.50;96.00;;;;;;1911826;75;21107;-88
2023/08/15 11:49:43;;;;;;;1.92;1.50;;;30.70;95.40;;;;;;1911484;75;21154;-89
2023/08/15 11:52:43;;;;;;;3.05;1.72;;;30.80;94.80;;;;;;1911502;75;21070;-88
2023/08/15 11:55:36;;;;;;;2.33;1.50;;;30.80;94.30;;;;;;1911268;75;21126;-89
2023/08/15 11:58:29;;;;;;;2.62;1.70;;;30.90;94.20;;;;;;1911331;75;21098;-89
2023/08/15 12:01:25;;;;;;;1.95;1.52;;;31.00;94.00;;;;;;1911396;75;21138;-89
2023/08/15 12:04:16;;;;;;;1.98;1.32;;;31.10;94.00;;;;;;1911384;75;21156;-89
2023/08/15 12:07:11;;;;;;;1.67;1.50;;;31.00;93.80;;;;;;1911382;75;21109;-88
2023/08/15 12:10:03;;;;;;;1.90;1.40;;;31.00;93.90;;;;;;1911197;75;21102;-88
2023/08/15 12:12:56;;;;;;;1.80;1.50;;;31.00;94.00;;;;;;1911988;75;21071;-88
2023/08/15 12:15:47;;;;;;;3.65;2.02;;;31.00;94.30;;;;;;1911400;75;21101;-88
2023/08/15 12:18:39;;;;;;;2.80;1.57;;;31.10;94.30;;;;;;1911172;75;21385;-89
2023/08/15 12:21:31;;;;;;;3.33;1.82;;;31.30;94.10;;;;;;1911111;75;21506;-89
2023/08/15 12:24:23;;;;;;;3.10;1.45;;;31.40;93.60;;;;;;1911329;75;21098;-89
2023/08/15 12:27:15;;;;;;;2.30;1.42;;;31.50;92.50;;;;;;1911518;75;21162;-88
2023/08/15 12:30:08;;;;;;;2.35;1.40;;;31.40;92.10;;;;;;1911500;75;21079;-89
2023/08/15 12:33:01;;;;;;;2.15;1.45;;;31.30;91.30;;;;;;1912160;75;21118;-88
2023/08/15 12:35:52;;;;;;;1.77;1.40;;;31.30;91.20;;;;;;1911503;75;21152;-89
2023/08/15 12:38:44;;;;;;;5.60;1.62;;;31.20;91.10;;;;;;1911892;75;21581;-89
2023/08/15 12:41:35;;;;;;;1.87;1.40;;;31.10;91.00;;;;;;1911348;75;21522;-89
2023/08/15 12:44:26;;;;;;;3.00;1.25;;;31.20;90.80;;;;;;1911295;75;21058;-88
2023/08/15 12:47:18;;;;;;;2.00;1.50;;;31.30;90.30;;;;;;1911587;75;21139;-89
2023/08/15 12:50:10;;;;;;;2.10;1.60;;;31.30;89.10;;;;;;1911331;75;21185;-88
2023/08/15 12:53:02;;;;;;;1.85;1.10;;;31.40;89.30;;;;;;1911457;75;21549;-88
2023/08/15 12:55:54;;;;;;;2.05;1.20;;;31.40;88.60;;;;;;1911270;75;21582;-89
2023/08/15 12:58:45;;;;;;;1.42;1.22;;;31.40;88.20;;;;;;1911258;75;21156;-89
2023/08/15 13:01:37;;;;;;;1.32;1.22;;;31.60;87.90;;;;;;1910891;75;21051;-89
2023/08/15 13:04:30;;;;;;;2.40;1.20;;;31.50;87.60;;;;;;1911302;75;21110;-89
2023/08/15 13:07:21;;;;;;;1.40;1.30;;;31.50;88.00;;;;;;1911308;75;21128;-89
2023/08/15 13:10:13;;;;;;;1.98;1.37;;;31.40;87.10;;;;;;1911535;75;21102;-89
2023/08/15 13:13:06;;;;;;;1.87;1.30;;;31.60;87.40;;;;;;1911159;75;21058;-89
2023/08/15 13:16:04;;;;;;;1.75;1.20;;;31.60;87.40;;;;;;1910846;75;21630;-89
2023/08/15 13:18:55;;;;;;;2.08;1.20;;;31.70;87.60;;;;;;1911104;75;21168;-89
2023/08/15 13:21:47;;;;;;;2.83;1.45;;;31.60;87.50;;;;;;1911367;75;21153;-89
2023/08/15 13:24:39;;;;;;;4.53;1.70;;;31.80;87.10;;;;;;1910970;75;21676;-89
2023/08/15 13:27:30;;;;;;;2.00;1.37;;;31.80;87.40;;;;;;1910860;75;21154;-89
2023/08/15 13:30:22;;;;;;;1.95;1.40;;;31.80;87.20;;;;;;1913144;75;21197;-88
2023/08/15 13:33:14;;;;;;;2.98;1.40;;;31.80;87.20;;;;;;1916581;75;21089;-89
2023/08/15 13:36:06;;;;;;;4.45;1.50;;;31.80;87.30;;;;;;1916566;75;21113;-89
2023/08/15 13:38:57;;;;;;;2.25;1.60;;;31.90;86.70;;;;;;1916542;75;21775;-90
2023/08/15 13:41:49;;;;;;;5.42;1.50;;;32.10;86.20;;;;;;1916520;75;21098;-89
2023/08/15 13:44:42;;;;;;;3.17;1.67;;;32.30;86.10;;;;;;1916679;75;21592;-89
2023/08/15 13:47:33;;;;;;;2.08;1.67;;;32.30;86.20;;;;;;1916655;75;21549;-89
2023/08/15 13:50:24;;;;;;;2.40;1.52;;;32.40;86.30;;;;;;1916400;75;21494;-87
2023/08/15 13:53:16;;;;;;;2.27;1.77;;;32.60;85.30;;;;;;1916797;75;21175;-89
2023/08/15 13:56:07;;;;;;;5.20;2.30;;;32.80;85.00;;;;;;1917209;75;21140;-90
2023/08/15 13:58:59;;;;;;;4.58;2.42;;;33.00;85.60;;;;;;1916775;75;21090;-90
2023/08/15 14:01:50;;;;;;;3.22;2.00;;;33.10;85.90;;;;;;1916571;75;21137;-90
2023/08/15 14:04:42;;;;;;;2.67;1.75;;;33.30;85.90;;;;;;1916571;75;21105;-89
2023/08/15 14:07:33;;;;;;;2.77;1.87;;;33.70;83.90;;;;;;1916729;75;21164;-90
2023/08/15 14:10:25;;;;;;;2.85;1.80;;;34.10;83.20;;;;;;1916654;75;21109;-89
2023/08/15 14:13:17;;;;;;;3.72;2.02;;;34.70;81.40;;;;;;1916601;75;21538;-90
2023/08/15 14:16:10;;;;;;;2.27;2.02;;;35.30;81.40;;;;;;1916431;75;21184;-89
2023/08/15 14:19:02;;;;;;;2.60;1.62;;;36.40;78.70;;;;;;1916407;75;21181;-89
2023/08/15 14:21:54;;;;;;;3.42;1.40;;;37.00;76.00;;;;;;1917090;75;21102;-88
2023/08/15 14:24:47;;;;;;;1.75;1.40;;;36.80;71.60;;;;;;1916861;75;21117;-89
2023/08/15 14:27:38;;;;;;;1.40;1.30;;;36.30;72.10;;;;;;1917252;75;21180;-89
2023/08/15 14:30:31;;;;;;;1.57;1.40;;;36.20;72.60;;;;;;1918002;75;21199;-89
2023/08/15 14:33:22;;;;;;;2.40;1.62;;;36.70;71.00;;;;;;1916671;75;21090;-90
2023/08/15 14:36:14;;;;;;;2.58;1.70;;;36.70;70.60;;;;;;1916673;75;21155;-90
2023/08/15 14:39:06;;;;;;;4.03;1.60;;;36.90;71.50;;;;;;1916700;75;21163;-89
2023/08/15 14:41:58;;;;;;;1.52;1.25;;;37.30;69.50;;;;;;1917063;75;21130;-90
2023/08/15 14:44:50;;;;;;;1.87;1.40;;;36.80;68.20;;;;;;1916897;75;21124;-89
2023/08/15 14:47:43;;;;;;;1.37;1.20;;;37.10;67.70;;;;;;1917401;75;21148;-89
2023/08/15 14:50:35;;;;;;;2.47;1.55;;;37.20;66.20;;;;;;1917245;75;21110;-92
2023/08/15 14:53:27;;;;;;;3.05;1.60;;;37.20;66.50;;;;;;1916803;75;21139;-90
2023/08/15 14:56:20;;;;;;;2.40;1.40;;;37.20;66.30;;;;;;1916519;75;21102;-89
2023/08/15 14:59:11;;;;;;;1.92;1.37;;;36.90;65.80;;;;;;1916902;75;21117;-89